Nome の空港の天気 - METARとTAF

Nome, Nome Airport ( PAOM / OME ) - アメリカ アラスカ州Nome
飛行場実況気象(Metar)
観測時間10/15 21:53 AKDT (10/16 05:53 UTC)
風向・風速北北東 9m/s 瞬間風速14m/s
視程10km以上
天気現象
全天の8割程度の雲 雲底高度 1980m
気温5℃
湿度60%
気圧993.1hPa
METARPAOM 160553Z 03018G28KT 10SM BKN065 05/M02 A2933 RMK AO2 PK WND 03028/0526 SLP931 T00501022 10056 20044 55012 $
過去の天気等 Google飛行場航空写真 Wunderground天気予報

過去48時間のMETAR

飛行場予報(TAF)
発表時間: 10/15 21:25 AKDT (10/16 05:25 UTC)
予報対象時間: 15日22時 AKDT ~ 16日22時 AKDT
風向・風速北東 11m/s
視程10km以上
全天の4割程度の雲 雲底高度 2740m
全天の4割程度の雲 雲底高度 3350m
16日2時 AKDT から
風向・風速北東 8m/s
視程10km以上
天気現象弱いしゅう雨
全天を覆う雲 雲底高度 1520m
16日8時 AKDT から
風向・風速北北東 6m/s
視程10km以上
天気現象弱いしゅう雨
全天の8割程度の雲 雲底高度 1070m
全天を覆う雲 雲底高度 1520m
16日12時 AKDT から
風向・風速北東 5m/s
視程8050m
天気現象弱いしゅう雨 もや
全天の8割程度の雲 雲底高度 460m
全天を覆う雲 雲底高度 1070m
16日20時 AKDT から
風向・風速北北東 4m/s
視程10km以上
天気現象弱いしゅう雨
全天の4割程度の雲 雲底高度 460m
全天を覆う雲 雲底高度 1070m
PAOM 160525Z 1606/1706 04021KT P6SM SCT090 SCT110
FM161000 05015KT P6SM -SHRA OVC050
FM161600 03012KT P6SM -SHRA BKN035 OVC050
FM162000 04010KT 5SM -SHRA BR BKN015 OVC035
FM170400 02008KT P6SM -SHRA SCT015 OVC035